sensor_id;sensor_type;location;lat;lon;timestamp;P1;durP1;ratioP1;P2;durP2;ratioP2
49109;SDS011;34921;52.320;16.142;2023-02-19T00:01:47;8.38;;;5.20;;
49109;SDS011;34921;52.320;16.142;2023-02-19T00:04:18;11.12;;;6.28;;
49109;SDS011;34921;52.320;16.142;2023-02-19T00:06:48;11.10;;;5.58;;
49109;SDS011;34921;52.320;16.142;2023-02-19T00:09:17;8.40;;;5.05;;
49109;SDS011;34921;52.320;16.142;2023-02-19T00:11:46;16.32;;;8.30;;
49109;SDS011;34921;52.320;16.142;2023-02-19T00:14:15;24.00;;;8.60;;
49109;SDS011;34921;52.320;16.142;2023-02-19T00:16:44;23.07;;;9.70;;
49109;SDS011;34921;52.320;16.142;2023-02-19T00:19:14;19.45;;;7.97;;
49109;SDS011;34921;52.320;16.142;2023-02-19T00:24:11;8.33;;;4.62;;
49109;SDS011;34921;52.320;16.142;2023-02-19T00:26:40;10.38;;;4.45;;
49109;SDS011;34921;52.320;16.142;2023-02-19T00:29:13;7.17;;;4.25;;
49109;SDS011;34921;52.320;16.142;2023-02-19T00:31:43;8.10;;;3.87;;
49109;SDS011;34921;52.320;16.142;2023-02-19T00:34:12;10.15;;;5.20;;
49109;SDS011;34921;52.320;16.142;2023-02-19T00:36:40;8.23;;;4.42;;
49109;SDS011;34921;52.320;16.142;2023-02-19T00:39:10;8.10;;;4.62;;
49109;SDS011;34921;52.320;16.142;2023-02-19T00:41:42;7.08;;;4.20;;
49109;SDS011;34921;52.320;16.142;2023-02-19T00:44:10;6.97;;;4.00;;
49109;SDS011;34921;52.320;16.142;2023-02-19T00:46:40;8.75;;;4.65;;
49109;SDS011;34921;52.320;16.142;2023-02-19T00:49:14;7.03;;;4.22;;
49109;SDS011;34921;52.320;16.142;2023-02-19T00:51:47;7.20;;;3.95;;
49109;SDS011;34921;52.320;16.142;2023-02-19T00:54:16;8.93;;;4.33;;
49109;SDS011;34921;52.320;16.142;2023-02-19T00:56:45;7.33;;;3.62;;
49109;SDS011;34921;52.320;16.142;2023-02-19T00:59:13;6.85;;;3.85;;
49109;SDS011;34921;52.320;16.142;2023-02-19T01:01:42;7.55;;;4.03;;
49109;SDS011;34921;52.320;16.142;2023-02-19T01:04:13;7.05;;;3.72;;
49109;SDS011;34921;52.320;16.142;2023-02-19T01:06:43;11.90;;;3.98;;
49109;SDS011;34921;52.320;16.142;2023-02-19T01:09:11;9.23;;;4.15;;
49109;SDS011;34921;52.320;16.142;2023-02-19T01:11:39;10.38;;;4.40;;
49109;SDS011;34921;52.320;16.142;2023-02-19T01:14:07;6.80;;;3.62;;
49109;SDS011;34921;52.320;16.142;2023-02-19T01:16:36;10.08;;;4.08;;
49109;SDS011;34921;52.320;16.142;2023-02-19T01:19:04;9.65;;;4.15;;
49109;SDS011;34921;52.320;16.142;2023-02-19T01:21:32;11.95;;;4.85;;
49109;SDS011;34921;52.320;16.142;2023-02-19T01:24:00;10.60;;;5.22;;
49109;SDS011;34921;52.320;16.142;2023-02-19T01:26:29;9.73;;;4.65;;
49109;SDS011;34921;52.320;16.142;2023-02-19T01:28:58;5.97;;;3.95;;
49109;SDS011;34921;52.320;16.142;2023-02-19T01:31:28;12.85;;;5.47;;
49109;SDS011;34921;52.320;16.142;2023-02-19T01:33:57;10.93;;;5.20;;
49109;SDS011;34921;52.320;16.142;2023-02-19T01:38:55;12.40;;;6.33;;
49109;SDS011;34921;52.320;16.142;2023-02-19T01:41:23;10.75;;;4.62;;
49109;SDS011;34921;52.320;16.142;2023-02-19T01:46:39;12.18;;;6.03;;
49109;SDS011;34921;52.320;16.142;2023-02-19T01:49:10;13.70;;;5.30;;
49109;SDS011;34921;52.320;16.142;2023-02-19T01:51:52;13.78;;;5.50;;
49109;SDS011;34921;52.320;16.142;2023-02-19T01:54:30;16.17;;;5.85;;
49109;SDS011;34921;52.320;16.142;2023-02-19T01:57:00;14.00;;;5.30;;
49109;SDS011;34921;52.320;16.142;2023-02-19T01:59:30;17.25;;;6.08;;
49109;SDS011;34921;52.320;16.142;2023-02-19T02:01:59;12.25;;;5.92;;
49109;SDS011;34921;52.320;16.142;2023-02-19T02:04:28;11.87;;;5.57;;
49109;SDS011;34921;52.320;16.142;2023-02-19T02:06:57;8.18;;;3.80;;
49109;SDS011;34921;52.320;16.142;2023-02-19T02:09:27;8.38;;;3.60;;
49109;SDS011;34921;52.320;16.142;2023-02-19T02:12:14;5.97;;;3.08;;
49109;SDS011;34921;52.320;16.142;2023-02-19T02:14:43;6.50;;;3.47;;
49109;SDS011;34921;52.320;16.142;2023-02-19T02:22:53;8.25;;;3.90;;
49109;SDS011;34921;52.320;16.142;2023-02-19T02:25:39;8.00;;;4.35;;
49109;SDS011;34921;52.320;16.142;2023-02-19T02:36:24;10.25;;;4.92;;
49109;SDS011;34921;52.320;16.142;2023-02-19T02:38:58;6.90;;;3.47;;
49109;SDS011;34921;52.320;16.142;2023-02-19T02:41:27;5.40;;;3.02;;
49109;SDS011;34921;52.320;16.142;2023-02-19T02:43:55;6.65;;;3.22;;
49109;SDS011;34921;52.320;16.142;2023-02-19T02:46:27;5.42;;;2.77;;
49109;SDS011;34921;52.320;16.142;2023-02-19T02:49:03;8.23;;;3.00;;
49109;SDS011;34921;52.320;16.142;2023-02-19T02:51:43;5.25;;;2.90;;
49109;SDS011;34921;52.320;16.142;2023-02-19T02:54:20;8.15;;;3.10;;
49109;SDS011;34921;52.320;16.142;2023-02-19T02:57:14;5.20;;;2.50;;
49109;SDS011;34921;52.320;16.142;2023-02-19T02:59:43;5.80;;;2.85;;
49109;SDS011;34921;52.320;16.142;2023-02-19T03:02:19;8.70;;;3.00;;
49109;SDS011;34921;52.320;16.142;2023-02-19T03:10:31;5.20;;;2.55;;
49109;SDS011;34921;52.320;16.142;2023-02-19T03:13:03;5.08;;;2.50;;
49109;SDS011;34921;52.320;16.142;2023-02-19T03:16:01;5.47;;;3.12;;
49109;SDS011;34921;52.320;16.142;2023-02-19T03:18:52;5.30;;;2.83;;
49109;SDS011;34921;52.320;16.142;2023-02-19T03:21:40;6.03;;;3.50;;
49109;SDS011;34921;52.320;16.142;2023-02-19T03:24:10;8.48;;;4.17;;
49109;SDS011;34921;52.320;16.142;2023-02-19T03:26:58;5.80;;;3.30;;
49109;SDS011;34921;52.320;16.142;2023-02-19T03:29:26;5.55;;;3.10;;
49109;SDS011;34921;52.320;16.142;2023-02-19T03:32:19;5.70;;;3.30;;
49109;SDS011;34921;52.320;16.142;2023-02-19T03:34:58;5.35;;;2.62;;
49109;SDS011;34921;52.320;16.142;2023-02-19T03:37:30;7.62;;;3.87;;
49109;SDS011;34921;52.320;16.142;2023-02-19T03:40:01;6.90;;;3.17;;
49109;SDS011;34921;52.320;16.142;2023-02-19T03:42:33;4.92;;;2.77;;
49109;SDS011;34921;52.320;16.142;2023-02-19T03:47:50;8.98;;;4.00;;
49109;SDS011;34921;52.320;16.142;2023-02-19T03:50:29;5.90;;;2.98;;
49109;SDS011;34921;52.320;16.142;2023-02-19T03:56:06;8.55;;;2.83;;
49109;SDS011;34921;52.320;16.142;2023-02-19T03:58:39;6.83;;;2.92;;
49109;SDS011;34921;52.320;16.142;2023-02-19T04:01:16;10.25;;;3.75;;
49109;SDS011;34921;52.320;16.142;2023-02-19T04:03:53;7.60;;;3.00;;
49109;SDS011;34921;52.320;16.142;2023-02-19T04:06:26;9.90;;;6.67;;
49109;SDS011;34921;52.320;16.142;2023-02-19T04:08:57;11.75;;;7.83;;
49109;SDS011;34921;52.320;16.142;2023-02-19T04:11:27;16.65;;;8.00;;
49109;SDS011;34921;52.320;16.142;2023-02-19T04:13:59;18.17;;;6.37;;
49109;SDS011;34921;52.320;16.142;2023-02-19T04:16:37;9.33;;;4.90;;
49109;SDS011;34921;52.320;16.142;2023-02-19T04:19:10;39.78;;;19.70;;
49109;SDS011;34921;52.320;16.142;2023-02-19T04:21:39;34.85;;;19.02;;
49109;SDS011;34921;52.320;16.142;2023-02-19T04:24:13;16.32;;;10.10;;
49109;SDS011;34921;52.320;16.142;2023-02-19T04:26:43;20.90;;;17.10;;
49109;SDS011;34921;52.320;16.142;2023-02-19T04:29:11;8.00;;;5.00;;
49109;SDS011;34921;52.320;16.142;2023-02-19T04:31:39;12.07;;;9.35;;
49109;SDS011;34921;52.320;16.142;2023-02-19T04:34:07;11.48;;;9.53;;
49109;SDS011;34921;52.320;16.142;2023-02-19T04:36:35;9.25;;;4.10;;
49109;SDS011;34921;52.320;16.142;2023-02-19T04:39:03;7.20;;;2.80;;
49109;SDS011;34921;52.320;16.142;2023-02-19T04:41:30;21.65;;;5.60;;
49109;SDS011;34921;52.320;16.142;2023-02-19T04:43:58;17.05;;;5.17;;
49109;SDS011;34921;52.320;16.142;2023-02-19T04:46:26;17.57;;;4.95;;
49109;SDS011;34921;52.320;16.142;2023-02-19T04:48:54;14.03;;;4.58;;
49109;SDS011;34921;52.320;16.142;2023-02-19T04:51:23;16.40;;;5.40;;
49109;SDS011;34921;52.320;16.142;2023-02-19T04:53:51;17.73;;;4.62;;
49109;SDS011;34921;52.320;16.142;2023-02-19T04:56:19;20.27;;;5.42;;
49109;SDS011;34921;52.320;16.142;2023-02-19T04:58:47;14.95;;;4.40;;
49109;SDS011;34921;52.320;16.142;2023-02-19T05:01:15;9.55;;;3.08;;
49109;SDS011;34921;52.320;16.142;2023-02-19T05:03:43;7.55;;;2.47;;
49109;SDS011;34921;52.320;16.142;2023-02-19T05:06:12;7.20;;;2.55;;
49109;SDS011;34921;52.320;16.142;2023-02-19T05:08:40;6.78;;;2.72;;
49109;SDS011;34921;52.320;16.142;2023-02-19T05:11:09;6.12;;;2.40;;
49109;SDS011;34921;52.320;16.142;2023-02-19T05:13:38;7.85;;;2.92;;
49109;SDS011;34921;52.320;16.142;2023-02-19T05:16:09;4.30;;;2.22;;
49109;SDS011;34921;52.320;16.142;2023-02-19T05:18:40;5.55;;;1.90;;
49109;SDS011;34921;52.320;16.142;2023-02-19T05:21:10;5.55;;;1.80;;
49109;SDS011;34921;52.320;16.142;2023-02-19T05:23:38;5.53;;;2.00;;
49109;SDS011;34921;52.320;16.142;2023-02-19T05:26:08;5.35;;;1.90;;
49109;SDS011;34921;52.320;16.142;2023-02-19T05:28:38;5.20;;;2.33;;
49109;SDS011;34921;52.320;16.142;2023-02-19T05:31:06;5.67;;;2.33;;
49109;SDS011;34921;52.320;16.142;2023-02-19T05:33:35;6.22;;;2.00;;
49109;SDS011;34921;52.320;16.142;2023-02-19T05:36:05;4.42;;;1.87;;
49109;SDS011;34921;52.320;16.142;2023-02-19T05:38:35;5.42;;;2.20;;
49109;SDS011;34921;52.320;16.142;2023-02-19T05:43:38;5.35;;;1.98;;
49109;SDS011;34921;52.320;16.142;2023-02-19T05:46:08;8.27;;;2.80;;
49109;SDS011;34921;52.320;16.142;2023-02-19T05:48:37;5.17;;;2.83;;
49109;SDS011;34921;52.320;16.142;2023-02-19T05:51:06;5.97;;;2.58;;
49109;SDS011;34921;52.320;16.142;2023-02-19T05:56:03;6.10;;;2.60;;
49109;SDS011;34921;52.320;16.142;2023-02-19T05:58:31;6.53;;;2.27;;
49109;SDS011;34921;52.320;16.142;2023-02-19T06:00:59;5.25;;;2.30;;
49109;SDS011;34921;52.320;16.142;2023-02-19T06:03:27;4.28;;;2.30;;
49109;SDS011;34921;52.320;16.142;2023-02-19T06:05:55;6.35;;;2.17;;
49109;SDS011;34921;52.320;16.142;2023-02-19T06:08:23;3.30;;;1.82;;
49109;SDS011;34921;52.320;16.142;2023-02-19T06:10:51;7.17;;;3.17;;
49109;SDS011;34921;52.320;16.142;2023-02-19T06:13:19;7.55;;;3.08;;
49109;SDS011;34921;52.320;16.142;2023-02-19T06:15:47;5.58;;;3.15;;
49109;SDS011;34921;52.320;16.142;2023-02-19T06:18:14;5.95;;;3.20;;
49109;SDS011;34921;52.320;16.142;2023-02-19T06:20:42;7.97;;;3.35;;
49109;SDS011;34921;52.320;16.142;2023-02-19T06:23:10;7.03;;;3.22;;
49109;SDS011;34921;52.320;16.142;2023-02-19T06:25:38;11.08;;;4.10;;
49109;SDS011;34921;52.320;16.142;2023-02-19T06:28:06;7.05;;;3.27;;
49109;SDS011;34921;52.320;16.142;2023-02-19T06:30:36;8.00;;;3.50;;
49109;SDS011;34921;52.320;16.142;2023-02-19T06:33:04;6.42;;;2.83;;
49109;SDS011;34921;52.320;16.142;2023-02-19T06:35:32;6.92;;;2.80;;
49109;SDS011;34921;52.320;16.142;2023-02-19T06:38:00;7.10;;;3.42;;
49109;SDS011;34921;52.320;16.142;2023-02-19T06:40:28;7.40;;;2.70;;
49109;SDS011;34921;52.320;16.142;2023-02-19T06:42:56;5.42;;;2.80;;
49109;SDS011;34921;52.320;16.142;2023-02-19T06:45:24;6.78;;;2.80;;
49109;SDS011;34921;52.320;16.142;2023-02-19T06:47:51;6.83;;;2.72;;
49109;SDS011;34921;52.320;16.142;2023-02-19T06:50:19;6.33;;;2.85;;
49109;SDS011;34921;52.320;16.142;2023-02-19T06:52:47;6.95;;;2.77;;
49109;SDS011;34921;52.320;16.142;2023-02-19T06:55:15;7.92;;;3.05;;
49109;SDS011;34921;52.320;16.142;2023-02-19T06:57:43;6.05;;;2.80;;
49109;SDS011;34921;52.320;16.142;2023-02-19T07:00:11;6.00;;;2.92;;
49109;SDS011;34921;52.320;16.142;2023-02-19T07:02:39;7.25;;;2.72;;
49109;SDS011;34921;52.320;16.142;2023-02-19T07:05:10;8.25;;;2.47;;
49109;SDS011;34921;52.320;16.142;2023-02-19T07:07:38;6.62;;;2.47;;
49109;SDS011;34921;52.320;16.142;2023-02-19T07:10:06;6.12;;;2.55;;
49109;SDS011;34921;52.320;16.142;2023-02-19T07:12:34;7.70;;;2.20;;
49109;SDS011;34921;52.320;16.142;2023-02-19T07:15:02;6.55;;;2.60;;
49109;SDS011;34921;52.320;16.142;2023-02-19T07:17:30;5.35;;;2.20;;
49109;SDS011;34921;52.320;16.142;2023-02-19T07:19:58;6.92;;;2.00;;
49109;SDS011;34921;52.320;16.142;2023-02-19T07:22:26;4.25;;;1.52;;
49109;SDS011;34921;52.320;16.142;2023-02-19T07:24:53;4.33;;;1.60;;
49109;SDS011;34921;52.320;16.142;2023-02-19T07:27:21;3.42;;;1.57;;
49109;SDS011;34921;52.320;16.142;2023-02-19T07:29:49;5.50;;;1.95;;
49109;SDS011;34921;52.320;16.142;2023-02-19T07:32:17;6.15;;;2.25;;
49109;SDS011;34921;52.320;16.142;2023-02-19T07:34:45;3.95;;;1.75;;
49109;SDS011;34921;52.320;16.142;2023-02-19T07:37:13;5.12;;;1.98;;
49109;SDS011;34921;52.320;16.142;2023-02-19T07:39:41;5.12;;;2.37;;
49109;SDS011;34921;52.320;16.142;2023-02-19T07:42:09;11.65;;;4.50;;
49109;SDS011;34921;52.320;16.142;2023-02-19T07:47:07;5.37;;;2.42;;
49109;SDS011;34921;52.320;16.142;2023-02-19T07:49:34;5.55;;;2.35;;
49109;SDS011;34921;52.320;16.142;2023-02-19T07:52:03;5.95;;;2.27;;
49109;SDS011;34921;52.320;16.142;2023-02-19T07:57:01;9.20;;;2.58;;
49109;SDS011;34921;52.320;16.142;2023-02-19T07:59:29;7.55;;;2.90;;
49109;SDS011;34921;52.320;16.142;2023-02-19T08:01:57;8.35;;;2.30;;
49109;SDS011;34921;52.320;16.142;2023-02-19T08:04:45;7.85;;;2.77;;
49109;SDS011;34921;52.320;16.142;2023-02-19T08:07:14;6.78;;;3.10;;
49109;SDS011;34921;52.320;16.142;2023-02-19T08:09:42;7.37;;;2.37;;
49109;SDS011;34921;52.320;16.142;2023-02-19T08:12:10;8.13;;;3.35;;
49109;SDS011;34921;52.320;16.142;2023-02-19T08:14:57;6.15;;;2.75;;
49109;SDS011;34921;52.320;16.142;2023-02-19T08:17:25;5.72;;;2.67;;
49109;SDS011;34921;52.320;16.142;2023-02-19T08:19:53;7.03;;;2.47;;
49109;SDS011;34921;52.320;16.142;2023-02-19T08:22:21;11.43;;;2.60;;
49109;SDS011;34921;52.320;16.142;2023-02-19T08:24:49;7.72;;;2.60;;
49109;SDS011;34921;52.320;16.142;2023-02-19T08:27:17;8.45;;;2.50;;
49109;SDS011;34921;52.320;16.142;2023-02-19T08:29:45;6.22;;;2.37;;
49109;SDS011;34921;52.320;16.142;2023-02-19T08:32:13;10.23;;;3.00;;
49109;SDS011;34921;52.320;16.142;2023-02-19T08:37:10;7.97;;;2.27;;
49109;SDS011;34921;52.320;16.142;2023-02-19T08:42:17;5.78;;;2.47;;
49109;SDS011;34921;52.320;16.142;2023-02-19T08:44:45;8.03;;;2.60;;
49109;SDS011;34921;52.320;16.142;2023-02-19T08:47:17;7.20;;;2.07;;
49109;SDS011;34921;52.320;16.142;2023-02-19T08:49:47;7.80;;;2.60;;
49109;SDS011;34921;52.320;16.142;2023-02-19T08:52:18;10.55;;;2.87;;
49109;SDS011;34921;52.320;16.142;2023-02-19T08:54:48;11.30;;;4.90;;
49109;SDS011;34921;52.320;16.142;2023-02-19T08:57:20;10.40;;;4.12;;
49109;SDS011;34921;52.320;16.142;2023-02-19T08:59:48;8.28;;;3.08;;
49109;SDS011;34921;52.320;16.142;2023-02-19T09:09:54;10.40;;;4.00;;
49109;SDS011;34921;52.320;16.142;2023-02-19T09:12:22;6.72;;;2.67;;
49109;SDS011;34921;52.320;16.142;2023-02-19T09:14:51;6.85;;;2.10;;
49109;SDS011;34921;52.320;16.142;2023-02-19T09:17:19;7.40;;;2.30;;
49109;SDS011;34921;52.320;16.142;2023-02-19T09:22:18;8.55;;;2.67;;
49109;SDS011;34921;52.320;16.142;2023-02-19T09:24:47;8.20;;;3.37;;
49109;SDS011;34921;52.320;16.142;2023-02-19T09:27:17;10.37;;;3.40;;
49109;SDS011;34921;52.320;16.142;2023-02-19T09:29:46;10.50;;;3.60;;
49109;SDS011;34921;52.320;16.142;2023-02-19T09:32:14;5.92;;;2.20;;
49109;SDS011;34921;52.320;16.142;2023-02-19T09:39:44;15.65;;;5.97;;
49109;SDS011;34921;52.320;16.142;2023-02-19T09:42:16;12.33;;;4.42;;
49109;SDS011;34921;52.320;16.142;2023-02-19T09:44:50;16.20;;;5.87;;
49109;SDS011;34921;52.320;16.142;2023-02-19T09:47:21;15.05;;;7.05;;
49109;SDS011;34921;52.320;16.142;2023-02-19T09:49:58;12.78;;;5.50;;
49109;SDS011;34921;52.320;16.142;2023-02-19T09:58:11;10.93;;;3.55;;
49109;SDS011;34921;52.320;16.142;2023-02-19T10:03:29;12.07;;;2.60;;
49109;SDS011;34921;52.320;16.142;2023-02-19T10:06:05;7.78;;;2.22;;
49109;SDS011;34921;52.320;16.142;2023-02-19T10:11:10;7.00;;;2.08;;
49109;SDS011;34921;52.320;16.142;2023-02-19T10:13:43;6.58;;;2.00;;
49109;SDS011;34921;52.320;16.142;2023-02-19T10:16:18;8.70;;;2.08;;
49109;SDS011;34921;52.320;16.142;2023-02-19T10:21:25;7.97;;;2.40;;
49109;SDS011;34921;52.320;16.142;2023-02-19T10:23:55;6.23;;;1.83;;
49109;SDS011;34921;52.320;16.142;2023-02-19T10:26:26;5.42;;;1.70;;
49109;SDS011;34921;52.320;16.142;2023-02-19T10:28:55;8.40;;;2.72;;
49109;SDS011;34921;52.320;16.142;2023-02-19T10:31:24;8.75;;;2.83;;
49109;SDS011;34921;52.320;16.142;2023-02-19T10:36:31;9.83;;;2.37;;
49109;SDS011;34921;52.320;16.142;2023-02-19T10:41:30;8.38;;;3.05;;
49109;SDS011;34921;52.320;16.142;2023-02-19T10:46:34;8.75;;;2.30;;
49109;SDS011;34921;52.320;16.142;2023-02-19T10:51:37;7.17;;;2.27;;
49109;SDS011;34921;52.320;16.142;2023-02-19T10:56:44;9.75;;;2.87;;
49109;SDS011;34921;52.320;16.142;2023-02-19T11:01:54;10.60;;;2.33;;
49109;SDS011;34921;52.320;16.142;2023-02-19T11:07:16;6.12;;;1.72;;
49109;SDS011;34921;52.320;16.142;2023-02-19T11:09:45;6.80;;;1.87;;
49109;SDS011;34921;52.320;16.142;2023-02-19T11:12:22;8.20;;;2.20;;
49109;SDS011;34921;52.320;16.142;2023-02-19T11:14:52;4.95;;;1.82;;
49109;SDS011;34921;52.320;16.142;2023-02-19T11:17:25;6.30;;;1.90;;
49109;SDS011;34921;52.320;16.142;2023-02-19T11:22:29;6.70;;;2.10;;
49109;SDS011;34921;52.320;16.142;2023-02-19T11:25:05;8.68;;;2.65;;
49109;SDS011;34921;52.320;16.142;2023-02-19T11:28:04;9.35;;;3.02;;
49109;SDS011;34921;52.320;16.142;2023-02-19T11:30:40;6.58;;;2.67;;
49109;SDS011;34921;52.320;16.142;2023-02-19T11:35:43;8.78;;;2.33;;
49109;SDS011;34921;52.320;16.142;2023-02-19T11:38:13;4.87;;;1.90;;
49109;SDS011;34921;52.320;16.142;2023-02-19T11:40:43;6.50;;;1.75;;
49109;SDS011;34921;52.320;16.142;2023-02-19T11:43:30;4.58;;;1.65;;
49109;SDS011;34921;52.320;16.142;2023-02-19T11:48:57;6.72;;;2.33;;
49109;SDS011;34921;52.320;16.142;2023-02-19T12:00:25;7.53;;;2.17;;
49109;SDS011;34921;52.320;16.142;2023-02-19T12:08:20;7.75;;;2.20;;
49109;SDS011;34921;52.320;16.142;2023-02-19T12:11:19;5.65;;;1.67;;
49109;SDS011;34921;52.320;16.142;2023-02-19T12:13:58;5.85;;;2.12;;
49109;SDS011;34921;52.320;16.142;2023-02-19T12:22:59;6.78;;;2.00;;
49109;SDS011;34921;52.320;16.142;2023-02-19T12:25:36;7.72;;;2.72;;
49109;SDS011;34921;52.320;16.142;2023-02-19T12:39:08;6.80;;;2.60;;
49109;SDS011;34921;52.320;16.142;2023-02-19T12:44:45;10.38;;;4.12;;
49109;SDS011;34921;52.320;16.142;2023-02-19T12:47:17;8.05;;;3.60;;
49109;SDS011;34921;52.320;16.142;2023-02-19T12:49:49;9.20;;;3.92;;
49109;SDS011;34921;52.320;16.142;2023-02-19T12:52:24;7.07;;;3.00;;
49109;SDS011;34921;52.320;16.142;2023-02-19T12:54:56;7.12;;;2.92;;
49109;SDS011;34921;52.320;16.142;2023-02-19T12:57:40;5.47;;;2.50;;
49109;SDS011;34921;52.320;16.142;2023-02-19T13:05:44;5.58;;;2.05;;
49109;SDS011;34921;52.320;16.142;2023-02-19T13:08:25;6.10;;;2.40;;
49109;SDS011;34921;52.320;16.142;2023-02-19T13:11:13;5.33;;;1.80;;
49109;SDS011;34921;52.320;16.142;2023-02-19T13:13:56;7.80;;;2.00;;
49109;SDS011;34921;52.320;16.142;2023-02-19T13:16:30;5.30;;;2.00;;
49109;SDS011;34921;52.320;16.142;2023-02-19T13:19:02;4.92;;;1.55;;
49109;SDS011;34921;52.320;16.142;2023-02-19T13:37:52;5.70;;;2.65;;
49109;SDS011;34921;52.320;16.142;2023-02-19T13:42:54;5.03;;;2.00;;
49109;SDS011;34921;52.320;16.142;2023-02-19T13:45:26;4.92;;;1.70;;
49109;SDS011;34921;52.320;16.142;2023-02-19T13:48:24;6.22;;;2.10;;
49109;SDS011;34921;52.320;16.142;2023-02-19T13:51:37;5.10;;;1.80;;
49109;SDS011;34921;52.320;16.142;2023-02-19T14:14:48;7.57;;;2.90;;
49109;SDS011;34921;52.320;16.142;2023-02-19T14:30:42;13.32;;;4.85;;
49109;SDS011;34921;52.320;16.142;2023-02-19T14:33:16;7.40;;;2.80;;
49109;SDS011;34921;52.320;16.142;2023-02-19T14:35:47;9.13;;;3.62;;
49109;SDS011;34921;52.320;16.142;2023-02-19T14:38:26;13.62;;;6.78;;
49109;SDS011;34921;52.320;16.142;2023-02-19T14:40:57;9.65;;;3.58;;
49109;SDS011;34921;52.320;16.142;2023-02-19T14:43:28;23.55;;;7.85;;
49109;SDS011;34921;52.320;16.142;2023-02-19T14:45:57;18.02;;;5.95;;
49109;SDS011;34921;52.320;16.142;2023-02-19T14:48:32;18.65;;;6.60;;
49109;SDS011;34921;52.320;16.142;2023-02-19T14:51:09;50.90;;;24.30;;
49109;SDS011;34921;52.320;16.142;2023-02-19T14:54:01;23.00;;;8.25;;
49109;SDS011;34921;52.320;16.142;2023-02-19T14:56:37;16.75;;;7.60;;
49109;SDS011;34921;52.320;16.142;2023-02-19T15:01:39;19.77;;;9.58;;
49109;SDS011;34921;52.320;16.142;2023-02-19T15:04:17;14.60;;;6.87;;
49109;SDS011;34921;52.320;16.142;2023-02-19T15:09:28;15.43;;;5.30;;
49109;SDS011;34921;52.320;16.142;2023-02-19T15:11:58;12.63;;;5.40;;
49109;SDS011;34921;52.320;16.142;2023-02-19T15:17:02;18.57;;;8.78;;
49109;SDS011;34921;52.320;16.142;2023-02-19T15:19:32;17.60;;;9.68;;
49109;SDS011;34921;52.320;16.142;2023-02-19T15:24:32;12.63;;;7.00;;
49109;SDS011;34921;52.320;16.142;2023-02-19T15:29:29;29.40;;;10.13;;
49109;SDS011;34921;52.320;16.142;2023-02-19T15:31:58;25.12;;;9.60;;
49109;SDS011;34921;52.320;16.142;2023-02-19T15:34:28;33.83;;;16.27;;
49109;SDS011;34921;52.320;16.142;2023-02-19T15:37:01;18.37;;;8.03;;
49109;SDS011;34921;52.320;16.142;2023-02-19T15:39:33;19.95;;;8.73;;
49109;SDS011;34921;52.320;16.142;2023-02-19T15:42:06;99.25;;;39.23;;
49109;SDS011;34921;52.320;16.142;2023-02-19T15:52:49;63.75;;;31.35;;
49109;SDS011;34921;52.320;16.142;2023-02-19T16:00:40;21.30;;;9.55;;
49109;SDS011;34921;52.320;16.142;2023-02-19T16:03:22;19.00;;;9.65;;
49109;SDS011;34921;52.320;16.142;2023-02-19T16:06:01;17.17;;;8.80;;
49109;SDS011;34921;52.320;16.142;2023-02-19T16:08:38;16.75;;;9.20;;
49109;SDS011;34921;52.320;16.142;2023-02-19T16:13:36;12.82;;;6.75;;
49109;SDS011;34921;52.320;16.142;2023-02-19T16:18:37;11.33;;;5.35;;
49109;SDS011;34921;52.320;16.142;2023-02-19T16:21:14;18.50;;;8.70;;
49109;SDS011;34921;52.320;16.142;2023-02-19T16:23:43;19.95;;;7.53;;
49109;SDS011;34921;52.320;16.142;2023-02-19T16:26:13;29.40;;;14.80;;
49109;SDS011;34921;52.320;16.142;2023-02-19T16:28:42;19.50;;;8.23;;
49109;SDS011;34921;52.320;16.142;2023-02-19T16:33:45;15.85;;;6.80;;
49109;SDS011;34921;52.320;16.142;2023-02-19T16:49:17;43.67;;;22.13;;
49109;SDS011;34921;52.320;16.142;2023-02-19T16:51:46;29.87;;;14.43;;
49109;SDS011;34921;52.320;16.142;2023-02-19T16:54:14;86.50;;;36.95;;
49109;SDS011;34921;52.320;16.142;2023-02-19T16:56:42;55.03;;;26.15;;
49109;SDS011;34921;52.320;16.142;2023-02-19T16:59:10;76.40;;;40.75;;
49109;SDS011;34921;52.320;16.142;2023-02-19T17:01:38;80.70;;;35.08;;
49109;SDS011;34921;52.320;16.142;2023-02-19T17:04:07;58.15;;;27.65;;
49109;SDS011;34921;52.320;16.142;2023-02-19T17:06:37;29.35;;;15.75;;
49109;SDS011;34921;52.320;16.142;2023-02-19T17:09:06;27.32;;;16.17;;
49109;SDS011;34921;52.320;16.142;2023-02-19T17:11:35;24.60;;;12.82;;
49109;SDS011;34921;52.320;16.142;2023-02-19T17:16:33;22.90;;;9.13;;
49109;SDS011;34921;52.320;16.142;2023-02-19T17:19:13;23.80;;;8.98;;
49109;SDS011;34921;52.320;16.142;2023-02-19T17:21:45;24.40;;;9.83;;
49109;SDS011;34921;52.320;16.142;2023-02-19T17:24:14;37.20;;;12.70;;
49109;SDS011;34921;52.320;16.142;2023-02-19T17:29:13;35.05;;;13.62;;
49109;SDS011;34921;52.320;16.142;2023-02-19T17:31:42;32.73;;;12.45;;
49109;SDS011;34921;52.320;16.142;2023-02-19T17:34:10;25.55;;;11.75;;
49109;SDS011;34921;52.320;16.142;2023-02-19T17:36:38;29.00;;;12.40;;
49109;SDS011;34921;52.320;16.142;2023-02-19T17:39:08;27.13;;;10.60;;
49109;SDS011;34921;52.320;16.142;2023-02-19T17:41:41;18.37;;;8.28;;
49109;SDS011;34921;52.320;16.142;2023-02-19T17:44:09;19.10;;;8.25;;
49109;SDS011;34921;52.320;16.142;2023-02-19T17:46:41;27.82;;;9.45;;
49109;SDS011;34921;52.320;16.142;2023-02-19T17:51:44;24.55;;;12.80;;
49109;SDS011;34921;52.320;16.142;2023-02-19T17:54:12;30.90;;;18.45;;
49109;SDS011;34921;52.320;16.142;2023-02-19T17:56:39;39.05;;;24.37;;
49109;SDS011;34921;52.320;16.142;2023-02-19T17:59:12;106.55;;;55.10;;
49109;SDS011;34921;52.320;16.142;2023-02-19T18:01:40;169.68;;;78.70;;
49109;SDS011;34921;52.320;16.142;2023-02-19T18:04:08;141.30;;;65.85;;
49109;SDS011;34921;52.320;16.142;2023-02-19T18:06:38;216.50;;;95.22;;
49109;SDS011;34921;52.320;16.142;2023-02-19T18:09:06;218.45;;;100.38;;
49109;SDS011;34921;52.320;16.142;2023-02-19T18:11:34;231.75;;;109.57;;
49109;SDS011;34921;52.320;16.142;2023-02-19T18:16:34;138.52;;;77.40;;
49109;SDS011;34921;52.320;16.142;2023-02-19T18:21:33;41.58;;;25.75;;
49109;SDS011;34921;52.320;16.142;2023-02-19T18:26:32;61.92;;;36.38;;
49109;SDS011;34921;52.320;16.142;2023-02-19T18:29:01;54.83;;;30.02;;
49109;SDS011;34921;52.320;16.142;2023-02-19T18:33:58;38.83;;;17.10;;
49109;SDS011;34921;52.320;16.142;2023-02-19T18:36:26;51.20;;;23.80;;
49109;SDS011;34921;52.320;16.142;2023-02-19T18:41:23;75.67;;;34.78;;
49109;SDS011;34921;52.320;16.142;2023-02-19T18:43:51;72.95;;;36.40;;
49109;SDS011;34921;52.320;16.142;2023-02-19T18:46:19;39.18;;;18.87;;
49109;SDS011;34921;52.320;16.142;2023-02-19T18:48:52;33.48;;;16.95;;
49109;SDS011;34921;52.320;16.142;2023-02-19T18:51:23;33.48;;;16.95;;
49109;SDS011;34921;52.320;16.142;2023-02-19T18:53:51;34.05;;;15.03;;
49109;SDS011;34921;52.320;16.142;2023-02-19T18:56:19;42.80;;;21.23;;
49109;SDS011;34921;52.320;16.142;2023-02-19T18:58:47;59.20;;;29.67;;
49109;SDS011;34921;52.320;16.142;2023-02-19T19:01:17;72.32;;;33.13;;
49109;SDS011;34921;52.320;16.142;2023-02-19T19:03:45;83.30;;;38.92;;
49109;SDS011;34921;52.320;16.142;2023-02-19T19:06:13;113.17;;;54.83;;
49109;SDS011;34921;52.320;16.142;2023-02-19T19:08:41;66.37;;;28.92;;
49109;SDS011;34921;52.320;16.142;2023-02-19T19:11:10;51.65;;;22.42;;
49109;SDS011;34921;52.320;16.142;2023-02-19T19:13:38;108.85;;;57.20;;